Pittsburgh International Airport
KPIT : now visible

Airfield :











YOU CAN JOIN US ON...

 
LOGIN :

Register | Disclaimer

   EN    FR    IT 

 









Legend :    VFR   Marginal VFR   IFR   Intensive IFR   Very Intensive IFR
Visi :
Ceiling :
>= 8 km
>= 3000ft
5 to 8 km
1000 to 3000 ft
1500m to 5 km
500 to 1000 ft
800 to 1500m
200 to 500 ft
< 800m
< 200 ft
Symbols :   Thunderstorms  Fog  Heavy snow  Heavy precipitations  Wind > 20 kt






- Airport Elevation : 1203 ft
- IATA code : PIT


KPIT - Pittsburgh International

CURRENT METAR :
  • 211451Z 29011KT 10SM FEW050 OVC065 07/M03 A3008 RMK AO2 SLP199 T00721033 51003

EXPIRED METARs :
  • 211351Z 28008KT 10SM FEW035 OVC055 06/M03 A3008 RMK AO2 SLP200 T00561033
  • 211251Z 28008KT 10SM OVC060 05/M03 A3007 RMK AO2 SLP197 T00501028
  • 211151Z 26005KT 10SM OVC060 04/M02 A3007 RMK AO2 SLP195 T00391022 10044 20011 50002
  • 211051Z 26003KT 10SM OVC055 03/M02 A3007 RMK AO2 SLP195 T00331022

TAF KPIT
Valid from the 21 at 15:00 until the 22 at 18:00 UTC


211509Z 2115/2218 29009KT P6SM OVC060
FM211700 29009G16KT P6SM SCT050
FM220000 26006KT P6SM SKC
KZOB FIR / North America



MET'MAP, your aeronautical weather chart ! - Copyright ORBIFLY December 2007 - Disclaimer

ORBIFLY MET'MAP TEAM :

Programming & Development : Alexandra Zaïnal
Original concept : Baudouin d'Aumeries
Technical & hardware support : Manuel Goepfert
Assistance : Marc-Olivier Méhu




SOURCES & CREDITS :

   NOAA       Earth
Advisory